Time;durP1;ratioP1;P1;durP2;ratioP2;P2;SDS_P1;SDS_P2;PMS_P1;PMS_P2;Temp;Humidity;BMP_temperature;BMP_pressure;BME280_temperature;BME280_humidity;BME280_pressure;Samples;Min_cycle;Max_cycle;Signal;HPM_P1;HPM_P2
2022/07/17 00:02:13;;;;;;;0.00;0.00;;;;;;;;;;4996521;28;20375;-86
2022/07/17 00:04:39;;;;;;;0.00;0.00;;;;;;;;;;4996755;28;20048;-85
2022/07/17 00:07:05;;;;;;;0.00;0.00;;;;;;;;;;4996842;28;20037;-86
2022/07/17 00:09:31;;;;;;;0.00;0.00;;;;;;;;;;4996654;28;20045;-85
2022/07/17 00:11:57;;;;;;;0.00;0.00;;;;;;;;;;4996514;28;20575;-85
2022/07/17 00:14:23;;;;;;;0.00;0.00;;;;;;;;;;4996435;28;20140;-85
2022/07/17 00:16:49;;;;;;;0.00;0.00;;;;;;;;;;4996416;28;20053;-85
2022/07/17 00:19:15;;;;;;;0.47;0.47;;;;;;;;;;4996433;28;20048;-85
2022/07/17 00:21:42;;;;;;;0.00;0.00;;;;;;;;;;4996244;28;20092;-85
2022/07/17 00:24:08;;;;;;;0.00;0.00;;;;;;;;;;5014227;28;20046;-85
2022/07/17 00:26:34;;;;;;;0.00;0.00;;;;;;;;;;5014174;28;20041;-85
2022/07/17 00:29:00;;;;;;;0.00;0.00;;;;;;;;;;4996091;28;20124;-86
2022/07/17 00:31:26;;;;;;;0.00;0.00;;;;;;;;;;4996460;28;20081;-85
2022/07/17 00:33:52;;;;;;;0.00;0.00;;;;;;;;;;4995996;28;20049;-85
2022/07/17 00:36:18;;;;;;;0.00;0.00;;;;;;;;;;4996510;28;20048;-85
2022/07/17 00:38:44;;;;;;;0.00;0.00;;;;;;;;;;4996047;28;20122;-86
2022/07/17 00:41:10;;;;;;;0.00;0.00;;;;;;;;;;5013894;28;20402;-85
2022/07/17 00:43:36;;;;;;;0.00;0.00;;;;;;;;;;4995857;28;20038;-86
2022/07/17 00:46:03;;;;;;;0.00;0.00;;;;;;;;;;5013820;28;20110;-85
2022/07/17 00:48:29;;;;;;;0.00;0.00;;;;;;;;;;4995827;28;20038;-86
2022/07/17 00:50:55;;;;;;;0.00;0.00;;;;;;;;;;4996262;28;20046;-85
2022/07/17 00:53:22;;;;;;;0.00;0.00;;;;;;;;;;4995735;28;20084;-86
2022/07/17 00:55:49;;;;;;;0.00;0.00;;;;;;;;;;4996074;28;20054;-86
2022/07/17 00:58:22;;;;;;;0.00;0.00;;;;;;;;;;4979352;28;20049;-86
2022/07/17 01:00:49;;;;;;;0.00;0.00;;;;;;;;;;5013529;28;20052;-86
2022/07/17 01:03:15;;;;;;;0.00;0.00;;;;;;;;;;4995528;28;20397;-85
2022/07/17 01:05:41;;;;;;;0.00;0.00;;;;;;;;;;4995734;28;20415;-86
2022/07/17 01:08:07;;;;;;;0.00;0.00;;;;;;;;;;4995246;28;20044;-86
2022/07/17 01:10:33;;;;;;;0.00;0.00;;;;;;;;;;4995812;28;20034;-86
2022/07/17 01:13:00;;;;;;;0.00;0.00;;;;;;;;;;5012852;28;20383;-86
2022/07/17 01:15:26;;;;;;;0.00;0.00;;;;;;;;;;5013400;28;20112;-86
2022/07/17 01:17:52;;;;;;;0.00;0.00;;;;;;;;;;4995428;28;20052;-86
2022/07/17 01:20:18;;;;;;;0.00;0.00;;;;;;;;;;5013238;28;20071;-86
2022/07/17 01:22:45;;;;;;;0.00;0.00;;;;;;;;;;4995323;28;20046;-87
2022/07/17 01:25:11;;;;;;;0.00;0.00;;;;;;;;;;4995782;28;20088;-86
2022/07/17 01:27:38;;;;;;;0.00;0.00;;;;;;;;;;4995411;28;20121;-86
2022/07/17 01:30:05;;;;;;;0.00;0.00;;;;;;;;;;4995329;28;20045;-86
2022/07/17 01:32:35;;;;;;;0.00;0.00;;;;;;;;;;4995226;28;20041;-85
2022/07/17 01:35:01;;;;;;;0.00;0.00;;;;;;;;;;4995400;28;20042;-86
2022/07/17 01:37:28;;;;;;;0.00;0.00;;;;;;;;;;4995245;28;20100;-86
2022/07/17 01:39:54;;;;;;;0.00;0.00;;;;;;;;;;5012909;28;20078;-85
2022/07/17 01:42:21;;;;;;;0.00;0.00;;;;;;;;;;4995302;28;20044;-85
2022/07/17 01:44:47;;;;;;;0.00;0.00;;;;;;;;;;4995269;28;20108;-85
2022/07/17 01:47:14;;;;;;;0.00;0.00;;;;;;;;;;4995223;28;20041;-85
2022/07/17 01:49:43;;;;;;;0.00;0.00;;;;;;;;;;5012575;28;20045;-86
2022/07/17 01:52:09;;;;;;;0.00;0.00;;;;;;;;;;4995127;28;20100;-86
2022/07/17 01:54:35;;;;;;;0.00;0.00;;;;;;;;;;4995153;28;20474;-85
2022/07/17 01:57:01;;;;;;;0.00;0.00;;;;;;;;;;4995171;28;20046;-86
2022/07/17 01:59:27;;;;;;;0.00;0.00;;;;;;;;;;4995227;28;20393;-86
2022/07/17 02:01:53;;;;;;;0.00;0.00;;;;;;;;;;5012822;28;20042;-85
2022/07/17 02:04:19;;;;;;;0.00;0.00;;;;;;;;;;4994817;28;20541;-85
2022/07/17 02:06:45;;;;;;;0.00;0.00;;;;;;;;;;4994990;28;20042;-86
2022/07/17 02:09:11;;;;;;;0.00;0.00;;;;;;;;;;4995115;28;20034;-86
2022/07/17 02:11:37;;;;;;;0.00;0.00;;;;;;;;;;4994921;28;20041;-86
2022/07/17 02:14:03;;;;;;;0.00;0.00;;;;;;;;;;4994713;28;20065;-85
2022/07/17 02:16:29;;;;;;;0.00;0.00;;;;;;;;;;4995380;28;20060;-85
2022/07/17 02:18:55;;;;;;;0.00;0.00;;;;;;;;;;4994774;28;20478;-85
2022/07/17 02:21:21;;;;;;;0.00;0.00;;;;;;;;;;4981510;28;20046;-85
2022/07/17 02:23:47;;;;;;;0.00;0.00;;;;;;;;;;4998658;28;20077;-85
2022/07/17 02:26:13;;;;;;;0.00;0.00;;;;;;;;;;4998708;28;20570;-86
2022/07/17 02:28:39;;;;;;;0.00;0.00;;;;;;;;;;5016136;28;20033;-86
2022/07/17 02:31:05;;;;;;;0.00;0.00;;;;;;;;;;4998489;28;20057;-85
2022/07/17 02:33:31;;;;;;;0.00;0.00;;;;;;;;;;4998567;28;20238;-85
2022/07/17 02:35:57;;;;;;;0.00;0.00;;;;;;;;;;5016065;28;20234;-86
2022/07/17 02:38:23;;;;;;;0.00;0.00;;;;;;;;;;4998671;28;20044;-85
2022/07/17 02:40:50;;;;;;;0.00;0.00;;;;;;;;;;4998158;28;20038;-85
2022/07/17 02:43:16;;;;;;;0.00;0.00;;;;;;;;;;4981966;28;20077;-85
2022/07/17 02:45:42;;;;;;;0.00;0.00;;;;;;;;;;4982080;28;20081;-85
2022/07/17 02:48:08;;;;;;;0.00;0.00;;;;;;;;;;4998334;28;20056;-85
2022/07/17 02:50:34;;;;;;;0.00;0.00;;;;;;;;;;4998071;28;20497;-85
2022/07/17 02:53:00;;;;;;;0.00;0.00;;;;;;;;;;4998165;28;20093;-85
2022/07/17 02:55:26;;;;;;;0.00;0.00;;;;;;;;;;5015733;28;20105;-85
2022/07/17 02:57:52;;;;;;;0.00;0.00;;;;;;;;;;4998123;28;20581;-86
2022/07/17 03:00:20;;;;;;;0.00;0.00;;;;;;;;;;4998023;28;20065;-83
2022/07/17 03:02:46;;;;;;;0.00;0.00;;;;;;;;;;4997946;28;20378;-85
2022/07/17 03:05:13;;;;;;;0.00;0.00;;;;;;;;;;4998042;28;20038;-86
2022/07/17 03:07:39;;;;;;;0.00;0.00;;;;;;;;;;5015652;28;20038;-86
2022/07/17 03:10:05;;;;;;;0.00;0.00;;;;;;;;;;4997556;28;20041;-85
2022/07/17 03:12:31;;;;;;;0.00;0.00;;;;;;;;;;4997977;28;20057;-86
2022/07/17 03:14:57;;;;;;;0.00;0.00;;;;;;;;;;5015193;28;20435;-86
2022/07/17 03:17:23;;;;;;;0.00;0.00;;;;;;;;;;4997646;28;20108;-85
2022/07/17 03:19:49;;;;;;;0.00;0.00;;;;;;;;;;4997367;28;20038;-86
2022/07/17 03:22:15;;;;;;;0.00;0.00;;;;;;;;;;4997554;28;20157;-86
2022/07/17 03:24:41;;;;;;;0.00;0.00;;;;;;;;;;4997298;28;20042;-85
2022/07/17 03:27:07;;;;;;;0.00;0.00;;;;;;;;;;4997221;28;20041;-86
2022/07/17 03:29:33;;;;;;;0.00;0.00;;;;;;;;;;4997143;28;20041;-86
2022/07/17 03:32:01;;;;;;;0.00;0.00;;;;;;;;;;4996914;28;20053;-86
2022/07/17 03:34:27;;;;;;;0.00;0.00;;;;;;;;;;4997363;28;20053;-86
2022/07/17 03:36:53;;;;;;;0.00;0.00;;;;;;;;;;4997336;28;20504;-86
2022/07/17 03:39:19;;;;;;;0.00;0.00;;;;;;;;;;4996989;28;20045;-86
2022/07/17 03:41:45;;;;;;;0.00;0.00;;;;;;;;;;4997103;28;20038;-86
2022/07/17 03:44:11;;;;;;;0.00;0.00;;;;;;;;;;4997172;28;20038;-86
2022/07/17 03:46:37;;;;;;;0.00;0.00;;;;;;;;;;4981012;28;20045;-86
2022/07/17 03:49:03;;;;;;;0.00;0.00;;;;;;;;;;4997188;28;20387;-86
2022/07/17 03:51:29;;;;;;;0.00;0.00;;;;;;;;;;5014678;28;20042;-86
2022/07/17 03:53:55;;;;;;;0.00;0.00;;;;;;;;;;4997024;28;20507;-85
2022/07/17 03:56:21;;;;;;;0.00;0.00;;;;;;;;;;4997180;28;20037;-86
2022/07/17 03:58:47;;;;;;;0.00;0.00;;;;;;;;;;4997027;28;20138;-85
2022/07/17 04:01:13;;;;;;;0.00;0.00;;;;;;;;;;4996820;28;20129;-86
2022/07/17 04:03:38;;;;;;;0.00;0.00;;;;;;;;;;4996846;28;20550;-86
2022/07/17 04:06:05;;;;;;;0.00;0.00;;;;;;;;;;4996573;28;20030;-85
2022/07/17 04:08:32;;;;;;;0.00;0.00;;;;;;;;;;4997035;28;20045;-85
2022/07/17 04:10:58;;;;;;;0.00;0.00;;;;;;;;;;4996295;28;20042;-86
2022/07/17 04:13:24;;;;;;;0.00;0.00;;;;;;;;;;5014145;28;20097;-86
2022/07/17 04:15:56;;;;;;;0.00;0.00;;;;;;;;;;4980123;28;20042;-85
2022/07/17 04:18:23;;;;;;;0.00;0.00;;;;;;;;;;4980357;28;20081;-86
2022/07/17 04:20:50;;;;;;;0.00;0.00;;;;;;;;;;4996098;28;20050;-85
2022/07/17 04:23:16;;;;;;;0.00;0.00;;;;;;;;;;4996666;28;20489;-85
2022/07/17 04:25:42;;;;;;;0.00;0.00;;;;;;;;;;4996314;28;20048;-85
2022/07/17 04:28:08;;;;;;;0.00;0.00;;;;;;;;;;4980064;28;20066;-85
2022/07/17 04:30:34;;;;;;;0.00;0.00;;;;;;;;;;5013636;28;20056;-85
2022/07/17 04:33:00;;;;;;;0.00;0.00;;;;;;;;;;5013953;28;20053;-86
2022/07/17 04:35:26;;;;;;;0.00;0.00;;;;;;;;;;4995972;28;20045;-85
2022/07/17 04:37:53;;;;;;;0.00;0.00;;;;;;;;;;5014051;28;20038;-86
2022/07/17 04:40:19;;;;;;;0.00;0.00;;;;;;;;;;4995914;28;20397;-85
2022/07/17 04:42:45;;;;;;;0.00;0.00;;;;;;;;;;4995441;28;20050;-86
2022/07/17 04:45:13;;;;;;;0.00;0.00;;;;;;;;;;4996036;28;20041;-85
2022/07/17 04:47:39;;;;;;;0.00;0.00;;;;;;;;;;4996061;28;20045;-86
2022/07/17 04:50:05;;;;;;;0.00;0.00;;;;;;;;;;4979554;28;20165;-85
2022/07/17 04:52:31;;;;;;;0.00;0.00;;;;;;;;;;4996055;28;20081;-86
2022/07/17 04:54:57;;;;;;;0.00;0.00;;;;;;;;;;4995891;28;20073;-85
2022/07/17 04:57:23;;;;;;;0.00;0.00;;;;;;;;;;4995932;28;20057;-85
2022/07/17 04:59:49;;;;;;;0.00;0.00;;;;;;;;;;4995648;28;20149;-86
2022/07/17 05:02:15;;;;;;;0.00;0.00;;;;;;;;;;4995858;28;20128;-85
2022/07/17 05:04:41;;;;;;;0.00;0.00;;;;;;;;;;4995585;28;20042;-85
2022/07/17 05:07:07;;;;;;;0.00;0.00;;;;;;;;;;4996823;28;20100;-85
2022/07/17 05:09:33;;;;;;;0.00;0.00;;;;;;;;;;4963510;28;20076;-85
2022/07/17 05:11:59;;;;;;;0.00;0.00;;;;;;;;;;4996037;28;20097;-85
2022/07/17 05:14:25;;;;;;;0.00;0.00;;;;;;;;;;4995544;28;20061;-85
2022/07/17 05:16:51;;;;;;;0.00;0.00;;;;;;;;;;4995433;28;20100;-85
2022/07/17 05:19:17;;;;;;;0.00;0.00;;;;;;;;;;4995569;28;20053;-86
2022/07/17 05:21:43;;;;;;;0.00;0.00;;;;;;;;;;5012911;28;20037;-86
2022/07/17 05:24:09;;;;;;;0.00;0.00;;;;;;;;;;4995776;28;20117;-85
2022/07/17 05:26:35;;;;;;;0.00;0.00;;;;;;;;;;4995309;28;20121;-86
2022/07/17 05:29:01;;;;;;;0.00;0.00;;;;;;;;;;4995444;28;20048;-85
2022/07/17 05:31:27;;;;;;;0.00;0.00;;;;;;;;;;5012916;28;20121;-86
2022/07/17 05:33:53;;;;;;;0.00;0.00;;;;;;;;;;5013010;28;20038;-86
2022/07/17 05:36:19;;;;;;;0.00;0.00;;;;;;;;;;4978924;28;20072;-86
2022/07/17 05:38:45;;;;;;;0.00;0.00;;;;;;;;;;5013050;28;20500;-86
2022/07/17 05:41:11;;;;;;;0.00;0.00;;;;;;;;;;4995058;28;20041;-85
2022/07/17 05:43:37;;;;;;;0.00;0.00;;;;;;;;;;4979126;28;20100;-86
2022/07/17 05:46:03;;;;;;;0.00;0.00;;;;;;;;;;4978775;28;20052;-86
2022/07/17 05:48:31;;;;;;;0.00;0.00;;;;;;;;;;4995404;28;20124;-86
2022/07/17 05:50:57;;;;;;;0.00;0.00;;;;;;;;;;4995310;28;20046;-86
2022/07/17 05:53:23;;;;;;;0.00;0.00;;;;;;;;;;4979491;28;20081;-85
2022/07/17 05:55:49;;;;;;;0.00;0.00;;;;;;;;;;4998739;28;20478;-85
2022/07/17 05:58:15;;;;;;;0.00;0.00;;;;;;;;;;5016724;28;20038;-85
2022/07/17 06:00:41;;;;;;;0.00;0.00;;;;;;;;;;4998882;28;20489;-85
2022/07/17 06:03:07;;;;;;;0.00;0.00;;;;;;;;;;4999131;28;20048;-85
2022/07/17 06:05:33;;;;;;;0.00;0.00;;;;;;;;;;4998865;28;20048;-85
2022/07/17 06:08:00;;;;;;;0.00;0.00;;;;;;;;;;4999282;28;20041;-85
2022/07/17 06:10:26;;;;;;;0.00;0.00;;;;;;;;;;4998564;28;20084;-85
2022/07/17 06:12:52;;;;;;;0.00;0.00;;;;;;;;;;4998748;28;20069;-86
2022/07/17 06:15:21;;;;;;;0.00;0.00;;;;;;;;;;4998656;28;20144;-85
2022/07/17 06:17:48;;;;;;;0.10;0.00;;;;;;;;;;4998874;28;20186;-85
2022/07/17 06:20:15;;;;;;;0.00;0.00;;;;;;;;;;5015500;28;20052;-85
2022/07/17 06:22:41;;;;;;;0.00;0.00;;;;;;;;;;5035732;28;20045;-85
2022/07/17 06:25:08;;;;;;;0.00;0.00;;;;;;;;;;5035835;28;20421;-85
2022/07/17 06:27:34;;;;;;;0.00;0.00;;;;;;;;;;5017605;28;20056;-85
2022/07/17 06:30:00;;;;;;;0.28;0.20;;;;;;;;;;5017604;28;20052;-85
2022/07/17 06:32:26;;;;;;;0.00;0.00;;;;;;;;;;5001232;28;20033;-84
2022/07/17 06:34:52;;;;;;;0.00;0.00;;;;;;;;;;5017971;28;20064;-84
2022/07/17 06:37:18;;;;;;;0.00;0.00;;;;;;;;;;5017397;28;20052;-84
2022/07/17 06:39:44;;;;;;;0.00;0.00;;;;;;;;;;5035629;28;20045;-85
2022/07/17 06:42:10;;;;;;;0.00;0.00;;;;;;;;;;5017464;28;20504;-85
2022/07/17 06:44:37;;;;;;;0.00;0.00;;;;;;;;;;5017827;28;20532;-84
2022/07/17 06:47:03;;;;;;;0.00;0.00;;;;;;;;;;5035189;28;20037;-85
2022/07/17 06:49:29;;;;;;;0.00;0.00;;;;;;;;;;5017793;28;20055;-85
2022/07/17 06:51:55;;;;;;;0.00;0.00;;;;;;;;;;5017209;28;20053;-84
2022/07/17 06:54:25;;;;;;;0.00;0.00;;;;;;;;;;5017995;28;20037;-85
2022/07/17 06:56:52;;;;;;;0.00;0.00;;;;;;;;;;5035300;28;20041;-85
2022/07/17 06:59:18;;;;;;;0.00;0.00;;;;;;;;;;5017926;28;20144;-85
2022/07/17 07:01:44;;;;;;;0.00;0.00;;;;;;;;;;5017414;28;20540;-84
2022/07/17 07:04:10;;;;;;;0.00;0.00;;;;;;;;;;5035512;28;20496;-85
2022/07/17 07:06:36;;;;;;;0.00;0.00;;;;;;;;;;5016783;28;20114;-84
2022/07/17 07:09:02;;;;;;;0.00;0.00;;;;;;;;;;5017820;28;20041;-84
2022/07/17 07:11:28;;;;;;;0.00;0.00;;;;;;;;;;5017475;28;20389;-85
2022/07/17 07:13:54;;;;;;;0.00;0.00;;;;;;;;;;5017637;28;20066;-84
2022/07/17 07:16:20;;;;;;;0.00;0.00;;;;;;;;;;5018057;28;20508;-93
2022/07/17 07:18:46;;;;;;;0.00;0.00;;;;;;;;;;5017764;28;20057;-85
2022/07/17 07:21:12;;;;;;;0.00;0.00;;;;;;;;;;5017238;28;20515;-85
2022/07/17 07:23:38;;;;;;;0.00;0.00;;;;;;;;;;5017348;28;20045;-84
2022/07/17 07:26:04;;;;;;;0.00;0.00;;;;;;;;;;5034598;28;20548;-86
2022/07/17 07:28:30;;;;;;;0.00;0.00;;;;;;;;;;5017069;28;20041;-85
2022/07/17 07:30:56;;;;;;;0.00;0.00;;;;;;;;;;5017420;28;20425;-87
2022/07/17 07:33:22;;;;;;;0.00;0.00;;;;;;;;;;5017134;28;20040;-85
2022/07/17 07:35:49;;;;;;;0.00;0.00;;;;;;;;;;5017346;28;20099;-85
2022/07/17 07:38:15;;;;;;;0.00;0.00;;;;;;;;;;5016770;28;20048;-86
2022/07/17 07:40:41;;;;;;;0.00;0.00;;;;;;;;;;5016833;28;20045;-86
2022/07/17 07:43:07;;;;;;;0.00;0.00;;;;;;;;;;5016637;28;20052;-85
2022/07/17 07:45:34;;;;;;;0.00;0.00;;;;;;;;;;5034656;28;20042;-86
2022/07/17 07:48:00;;;;;;;0.00;0.00;;;;;;;;;;5016788;28;20038;-85
2022/07/17 07:50:28;;;;;;;0.00;0.00;;;;;;;;;;5034695;28;20037;-86
2022/07/17 07:52:54;;;;;;;0.00;0.00;;;;;;;;;;5016554;28;20053;-86
2022/07/17 07:55:21;;;;;;;0.00;0.00;;;;;;;;;;5034474;28;20049;-85
2022/07/17 07:57:47;;;;;;;0.00;0.00;;;;;;;;;;5000363;28;20049;-86
2022/07/17 08:00:14;;;;;;;0.00;0.00;;;;;;;;;;5016491;28;20048;-86
2022/07/17 08:02:40;;;;;;;0.00;0.00;;;;;;;;;;5016360;28;20128;-85
2022/07/17 08:05:06;;;;;;;0.00;0.00;;;;;;;;;;5016487;28;20470;-86
2022/07/17 08:07:34;;;;;;;0.00;0.00;;;;;;;;;;5034058;28;20054;-85
2022/07/17 08:10:00;;;;;;;0.00;0.00;;;;;;;;;;5034077;28;20132;-85
2022/07/17 08:12:26;;;;;;;0.00;0.00;;;;;;;;;;4999644;28;20124;-85
2022/07/17 08:14:53;;;;;;;0.00;0.00;;;;;;;;;;4999989;28;20128;-85
2022/07/17 08:17:19;;;;;;;0.00;0.00;;;;;;;;;;5033097;28;20045;-85
2022/07/17 08:19:45;;;;;;;0.00;0.00;;;;;;;;;;5016270;28;20124;-86
2022/07/17 08:22:12;;;;;;;0.00;0.00;;;;;;;;;;5015903;28;20054;-85
2022/07/17 08:24:38;;;;;;;0.00;0.00;;;;;;;;;;5016255;28;20045;-85
2022/07/17 08:27:04;;;;;;;0.00;0.00;;;;;;;;;;5033587;28;20045;-85
2022/07/17 08:29:30;;;;;;;0.00;0.00;;;;;;;;;;5016136;28;20099;-85
2022/07/17 08:31:56;;;;;;;0.00;0.00;;;;;;;;;;5015905;28;20480;-86
2022/07/17 08:34:22;;;;;;;0.00;0.00;;;;;;;;;;5033934;28;20044;-86
2022/07/17 08:36:48;;;;;;;0.00;0.00;;;;;;;;;;5016014;28;20037;-85
2022/07/17 08:39:14;;;;;;;0.00;0.00;;;;;;;;;;5033521;28;20119;-86
2022/07/17 08:41:40;;;;;;;0.00;0.00;;;;;;;;;;5015645;28;20045;-87
2022/07/17 08:44:07;;;;;;;0.00;0.00;;;;;;;;;;5016066;28;20044;-85
2022/07/17 08:46:37;;;;;;;0.00;0.00;;;;;;;;;;5016027;28;20041;-86
2022/07/17 08:49:03;;;;;;;0.00;0.00;;;;;;;;;;5015735;28;20111;-85
2022/07/17 08:51:30;;;;;;;0.00;0.00;;;;;;;;;;5015799;28;20037;-86
2022/07/17 08:53:56;;;;;;;0.00;0.00;;;;;;;;;;4999071;28;20049;-85
2022/07/17 08:56:22;;;;;;;0.00;0.00;;;;;;;;;;5015544;28;20077;-85
2022/07/17 08:58:48;;;;;;;0.00;0.00;;;;;;;;;;5015392;28;20100;-85
2022/07/17 09:01:15;;;;;;;0.00;0.00;;;;;;;;;;5015663;28;20045;-86
2022/07/17 09:03:42;;;;;;;0.00;0.00;;;;;;;;;;5033266;28;20041;-86
2022/07/17 09:06:18;;;;;;;0.00;0.00;;;;;;;;;;5015484;28;20042;-87
2022/07/17 09:08:44;;;;;;;0.00;0.00;;;;;;;;;;5015256;28;20267;-86
2022/07/17 09:11:10;;;;;;;0.00;0.00;;;;;;;;;;5015334;28;20566;-86
2022/07/17 09:13:36;;;;;;;0.00;0.00;;;;;;;;;;4995493;28;20121;-86
2022/07/17 09:16:10;;;;;;;0.00;0.00;;;;;;;;;;5012005;28;20501;-86
2022/07/17 09:18:46;;;;;;;0.00;0.00;;;;;;;;;;5013234;28;20049;-86
2022/07/17 09:21:19;;;;;;;0.00;0.00;;;;;;;;;;5012036;28;20058;-87
2022/07/17 09:23:46;;;;;;;0.00;0.00;;;;;;;;;;5011779;28;20042;-86
2022/07/17 09:26:12;;;;;;;0.00;0.00;;;;;;;;;;5011886;28;20121;-87
2022/07/17 09:28:45;;;;;;;0.00;0.00;;;;;;;;;;5011620;28;20129;-87
2022/07/17 09:31:11;;;;;;;0.00;0.00;;;;;;;;;;5011719;28;20045;-85
2022/07/17 09:33:37;;;;;;;0.00;0.00;;;;;;;;;;5011612;28;20124;-87
2022/07/17 09:36:08;;;;;;;0.00;0.00;;;;;;;;;;5013208;28;20038;-86
2022/07/17 09:38:35;;;;;;;0.00;0.00;;;;;;;;;;5012863;28;20130;-86
2022/07/17 09:41:11;;;;;;;0.00;0.00;;;;;;;;;;5011609;28;20046;-86
2022/07/17 09:43:38;;;;;;;0.00;0.00;;;;;;;;;;5011729;28;20493;-86
2022/07/17 09:46:04;;;;;;;0.00;0.00;;;;;;;;;;5011970;28;20045;-86
2022/07/17 09:48:30;;;;;;;0.00;0.00;;;;;;;;;;5011391;28;20084;-86
2022/07/17 09:50:56;;;;;;;0.00;0.00;;;;;;;;;;5012912;28;20125;-86
2022/07/17 09:53:23;;;;;;;0.00;0.00;;;;;;;;;;5012808;28;20069;-86
2022/07/17 09:55:50;;;;;;;0.00;0.00;;;;;;;;;;5011595;28;20124;-86
2022/07/17 09:58:19;;;;;;;0.00;0.00;;;;;;;;;;5011377;28;20045;-86
2022/07/17 10:00:45;;;;;;;0.00;0.00;;;;;;;;;;5012677;28;20049;-86
2022/07/17 10:03:11;;;;;;;0.00;0.00;;;;;;;;;;5012572;28;20045;-86
2022/07/17 10:05:37;;;;;;;0.00;0.00;;;;;;;;;;5011781;28;20053;-89
2022/07/17 10:08:03;;;;;;;0.00;0.00;;;;;;;;;;5012928;28;20042;-85
2022/07/17 10:10:29;;;;;;;0.00;0.00;;;;;;;;;;5011539;28;20037;-91
2022/07/17 10:12:55;;;;;;;0.00;0.00;;;;;;;;;;5011046;28;21284;-86
2022/07/17 10:15:25;;;;;;;0.88;0.00;;;;;;;;;;5011546;28;20489;-86
2022/07/17 10:17:51;;;;;;;0.00;0.00;;;;;;;;;;5011424;28;20050;-88
2022/07/17 10:20:24;;;;;;;0.00;0.00;;;;;;;;;;5011555;28;20049;-89
2022/07/17 10:22:51;;;;;;;0.00;0.00;;;;;;;;;;5011145;28;20504;-88
2022/07/17 10:25:18;;;;;;;0.00;0.00;;;;;;;;;;4994986;28;20504;-89
2022/07/17 10:27:51;;;;;;;0.00;0.00;;;;;;;;;;5012559;28;20037;-88
2022/07/17 10:30:37;;;;;;;0.00;0.00;;;;;;;;;;5011480;28;20508;-89
2022/07/17 10:33:06;;;;;;;0.00;0.00;;;;;;;;;;5011005;28;20497;-86
2022/07/17 10:35:43;;;;;;;0.00;0.00;;;;;;;;;;5011563;28;20045;-88
2022/07/17 10:38:13;;;;;;;0.00;0.00;;;;;;;;;;5011151;28;20468;-87
2022/07/17 10:40:39;;;;;;;0.00;0.00;;;;;;;;;;5011348;28;20049;-86
2022/07/17 10:43:06;;;;;;;0.00;0.00;;;;;;;;;;5014728;28;20386;-86
2022/07/17 10:45:38;;;;;;;0.00;0.00;;;;;;;;;;5016362;28;20299;-86
2022/07/17 10:48:08;;;;;;;0.00;0.00;;;;;;;;;;4998475;28;20061;-85
2022/07/17 10:50:36;;;;;;;0.00;0.00;;;;;;;;;;4998605;28;20396;-86
2022/07/17 10:53:06;;;;;;;0.00;0.00;;;;;;;;;;4998073;28;20121;-86
2022/07/17 10:55:32;;;;;;;0.00;0.00;;;;;;;;;;4998235;28;20053;-85
2022/07/17 10:57:58;;;;;;;0.00;0.00;;;;;;;;;;5014466;28;20049;-86
2022/07/17 11:00:25;;;;;;;0.00;0.00;;;;;;;;;;5014184;28;20049;-84
2022/07/17 11:02:51;;;;;;;0.00;0.00;;;;;;;;;;5015776;28;20110;-85
2022/07/17 11:05:17;;;;;;;0.00;0.00;;;;;;;;;;5014169;28;20205;-85
2022/07/17 11:07:54;;;;;;;0.00;0.00;;;;;;;;;;5014296;28;20076;-86
2022/07/17 11:10:21;;;;;;;0.00;0.00;;;;;;;;;;5014041;28;20049;-86
2022/07/17 11:12:47;;;;;;;0.00;0.00;;;;;;;;;;5017455;28;20426;-86
2022/07/17 11:15:13;;;;;;;0.00;0.00;;;;;;;;;;5034069;28;20335;-88
2022/07/17 11:17:44;;;;;;;0.00;0.00;;;;;;;;;;5033853;28;20079;-87
2022/07/17 11:20:10;;;;;;;0.00;0.00;;;;;;;;;;5033846;28;20458;-87
2022/07/17 11:22:36;;;;;;;0.00;0.00;;;;;;;;;;5033936;28;20050;-87
2022/07/17 11:25:03;;;;;;;0.00;0.00;;;;;;;;;;5033827;28;20049;-87
2022/07/17 11:27:30;;;;;;;0.00;0.00;;;;;;;;;;5033681;28;20044;-86
2022/07/17 11:29:57;;;;;;;0.00;0.00;;;;;;;;;;5033583;28;20052;-86
2022/07/17 11:32:25;;;;;;;0.00;0.00;;;;;;;;;;5033767;28;20048;-88
2022/07/17 11:34:51;;;;;;;0.00;0.00;;;;;;;;;;5033481;28;20168;-87
2022/07/17 11:37:17;;;;;;;0.00;0.00;;;;;;;;;;5033628;28;20048;-87
2022/07/17 11:39:45;;;;;;;0.00;0.00;;;;;;;;;;5033384;28;20046;-87
2022/07/17 11:42:12;;;;;;;0.00;0.00;;;;;;;;;;5016867;28;20050;-88
2022/07/17 11:44:39;;;;;;;0.00;0.00;;;;;;;;;;5033048;28;20401;-88
2022/07/17 11:47:05;;;;;;;0.00;0.00;;;;;;;;;;5033541;28;20421;-88
2022/07/17 11:49:31;;;;;;;0.00;0.00;;;;;;;;;;5034543;28;20037;-88
2022/07/17 11:51:58;;;;;;;0.00;0.00;;;;;;;;;;5033168;28;20045;-88
2022/07/17 11:54:25;;;;;;;0.00;0.00;;;;;;;;;;5033381;28;20079;-91
2022/07/17 11:56:57;;;;;;;0.00;0.00;;;;;;;;;;5033169;28;20050;-90
2022/07/17 11:59:25;;;;;;;0.00;0.00;;;;;;;;;;5016597;28;20045;-91
2022/07/17 12:01:51;;;;;;;0.00;0.00;;;;;;;;;;5033052;28;20046;-89
2022/07/17 12:04:18;;;;;;;0.00;0.00;;;;;;;;;;5032835;28;20358;-90
2022/07/17 12:06:45;;;;;;;0.00;0.00;;;;;;;;;;5033121;28;20073;-89
2022/07/17 12:09:11;;;;;;;0.00;0.00;;;;;;;;;;5032799;28;20041;-90
2022/07/17 12:11:47;;;;;;;0.00;0.00;;;;;;;;;;5032715;28;20041;-89
2022/07/17 12:14:13;;;;;;;0.00;0.00;;;;;;;;;;5032907;28;20067;-89
2022/07/17 12:16:39;;;;;;;0.00;0.00;;;;;;;;;;5032883;28;20121;-89
2022/07/17 12:19:11;;;;;;;0.00;0.00;;;;;;;;;;5032618;28;20400;-89
2022/07/17 12:21:54;;;;;;;0.00;0.00;;;;;;;;;;5032675;28;20037;-89
2022/07/17 12:24:26;;;;;;;0.00;0.00;;;;;;;;;;5032685;28;20100;-89
2022/07/17 12:26:52;;;;;;;0.28;0.10;;;;;;;;;;5016466;28;20124;-90
2022/07/17 12:29:18;;;;;;;0.00;0.00;;;;;;;;;;5033587;28;20091;-89
2022/07/17 12:31:45;;;;;;;0.00;0.00;;;;;;;;;;5032709;28;20049;-91
2022/07/17 12:34:11;;;;;;;0.00;0.00;;;;;;;;;;5032423;28;20500;-89
2022/07/17 12:36:37;;;;;;;0.00;0.00;;;;;;;;;;5032420;28;20436;-91
2022/07/17 12:39:03;;;;;;;0.00;0.00;;;;;;;;;;5012307;28;20042;-90
2022/07/17 12:41:29;;;;;;;0.00;0.00;;;;;;;;;;4993110;28;20042;-90
2022/07/17 12:43:55;;;;;;;0.00;0.00;;;;;;;;;;4993322;28;20049;-91
2022/07/17 12:46:23;;;;;;;0.00;0.00;;;;;;;;;;4992871;28;20038;-88
2022/07/17 12:48:49;;;;;;;0.00;0.00;;;;;;;;;;4994282;28;20046;-86
2022/07/17 12:51:15;;;;;;;0.00;0.00;;;;;;;;;;4992481;28;20054;-87
2022/07/17 12:53:42;;;;;;;0.00;0.00;;;;;;;;;;4992826;28;20042;-87
2022/07/17 12:56:08;;;;;;;0.00;0.00;;;;;;;;;;4992809;28;20038;-87
2022/07/17 12:58:35;;;;;;;0.00;0.00;;;;;;;;;;4993939;28;20042;-87
2022/07/17 13:01:05;;;;;;;0.00;0.00;;;;;;;;;;4993534;28;20070;-87
2022/07/17 13:03:32;;;;;;;0.00;0.00;;;;;;;;;;4992223;28;20122;-87
2022/07/17 13:05:59;;;;;;;0.00;0.00;;;;;;;;;;4992483;28;20375;-90
2022/07/17 13:08:25;;;;;;;0.00;0.00;;;;;;;;;;4994034;28;20100;-88
2022/07/17 13:10:51;;;;;;;0.00;0.00;;;;;;;;;;4975923;28;20038;-87
2022/07/17 13:13:17;;;;;;;0.00;0.00;;;;;;;;;;4992225;28;20202;-88
2022/07/17 13:15:43;;;;;;;0.00;0.00;;;;;;;;;;4993497;28;20045;-87
2022/07/17 13:18:09;;;;;;;0.00;0.00;;;;;;;;;;4992411;28;20042;-87
2022/07/17 13:20:35;;;;;;;0.00;0.00;;;;;;;;;;4992069;28;20442;-88
2022/07/17 13:23:02;;;;;;;0.00;0.00;;;;;;;;;;4992341;28;20051;-88
2022/07/17 13:25:28;;;;;;;0.00;0.00;;;;;;;;;;4992201;28;20481;-86
2022/07/17 13:27:54;;;;;;;0.00;0.00;;;;;;;;;;4992295;28;20452;-88
2022/07/17 13:30:20;;;;;;;0.00;0.00;;;;;;;;;;4992000;28;20049;-88
2022/07/17 13:32:46;;;;;;;0.00;0.00;;;;;;;;;;4992332;28;20042;-88
2022/07/17 13:35:12;;;;;;;0.00;0.00;;;;;;;;;;4993296;28;20121;-88
2022/07/17 13:37:38;;;;;;;0.00;0.00;;;;;;;;;;4992228;28;20045;-88
2022/07/17 13:40:05;;;;;;;0.00;0.00;;;;;;;;;;4991873;28;20050;-88
2022/07/17 13:42:31;;;;;;;0.00;0.00;;;;;;;;;;4993370;28;20343;-87
2022/07/17 13:44:57;;;;;;;0.00;0.00;;;;;;;;;;4993213;28;20040;-87
2022/07/17 13:47:23;;;;;;;0.00;0.00;;;;;;;;;;4976294;28;20046;-88
2022/07/17 13:49:49;;;;;;;0.00;0.00;;;;;;;;;;4991736;28;20511;-88
2022/07/17 13:52:15;;;;;;;0.00;0.00;;;;;;;;;;4976219;28;20050;-87
2022/07/17 13:54:41;;;;;;;0.00;0.00;;;;;;;;;;4992598;28;20054;-87
2022/07/17 13:57:07;;;;;;;0.10;0.08;;;;;;;;;;5008067;28;20098;-89
2022/07/17 13:59:33;;;;;;;0.00;0.00;;;;;;;;;;5012797;28;20046;-87
2022/07/17 14:01:59;;;;;;;0.00;0.00;;;;;;;;;;5011142;28;20068;-88
2022/07/17 14:04:26;;;;;;;0.00;0.00;;;;;;;;;;5011396;28;20053;-87
2022/07/17 14:06:52;;;;;;;0.00;0.00;;;;;;;;;;5012833;28;20150;-87
2022/07/17 14:09:18;;;;;;;0.00;0.00;;;;;;;;;;5011748;28;20042;-88
2022/07/17 14:11:44;;;;;;;0.00;0.00;;;;;;;;;;5011300;28;20092;-88
2022/07/17 14:14:10;;;;;;;0.00;0.00;;;;;;;;;;5011238;28;20053;-87
2022/07/17 14:16:36;;;;;;;0.00;0.00;;;;;;;;;;5013108;28;20050;-86
2022/07/17 14:19:02;;;;;;;0.00;0.00;;;;;;;;;;5015561;28;20046;-87
2022/07/17 14:21:31;;;;;;;0.00;0.00;;;;;;;;;;5016099;28;20432;-87
2022/07/17 14:23:57;;;;;;;0.00;0.00;;;;;;;;;;5015186;28;20038;-88
2022/07/17 14:26:24;;;;;;;0.00;0.00;;;;;;;;;;5015170;28;20034;-87
2022/07/17 14:28:50;;;;;;;0.10;0.00;;;;;;;;;;5015319;28;20500;-86
2022/07/17 14:31:16;;;;;;;0.00;0.00;;;;;;;;;;5015177;28;20069;-87
2022/07/17 14:33:42;;;;;;;0.00;0.00;;;;;;;;;;5016448;28;20385;-87
2022/07/17 14:36:09;;;;;;;0.00;0.00;;;;;;;;;;5014740;28;20042;-87
2022/07/17 14:38:35;;;;;;;0.00;0.00;;;;;;;;;;5014776;28;20048;-88
2022/07/17 14:41:01;;;;;;;0.00;0.00;;;;;;;;;;5015710;28;20469;-86